<?xml version="1.0" encoding="UTF-8" standalone="no" ?>
<gpx xmlns="http://www.topografix.com/GPX/1/1" xmlns:xsi="http://www.w3.org/2001/XMLSchema-instance" xsi:schemaLocation="http://www.topografix.com/GPX/1/1 http://www.topografix.com/GPX/1/1/gpx.xsd" version="1.1" creator="VisuGPX - https://www.visugpx.com">
  <metadata>
    <name>GR8S3_LesSableStMichelHerm</name>
    <desc><![CDATA[gnerando idor: 12420312_12420320_12420354_12420365]]></desc>
  </metadata>
  <trk>
    <name><![CDATA[GR8S3J5_StMichelHPontDeBrault_21km-12420365]]></name>
    <extensions>
      <line xmlns="http://www.topografix.com/GPX/gpx_style/0/2">
        <color>00FF00</color>
        <width>4</width>
      </line>
    </extensions>
    <trkseg>
      <trkpt lat="46.35768" lon="-1.25512">
        <ele>7</ele>
        <time>2023-10-30T14:38:18Z</time>
      </trkpt>
      <trkpt lat="46.35681" lon="-1.2565">
        <ele>5</ele>
        <time>2023-10-30T14:41:10Z</time>
      </trkpt>
      <trkpt lat="46.35367" lon="-1.25069">
        <ele>9</ele>
        <time>2023-10-30T14:52:30Z</time>
      </trkpt>
      <trkpt lat="46.35327" lon="-1.25087">
        <ele>10</ele>
        <time>2023-10-30T14:53:26Z</time>
      </trkpt>
      <trkpt lat="46.3516" lon="-1.24848">
        <ele>6</ele>
        <time>2023-10-30T14:58:39Z</time>
      </trkpt>
      <trkpt lat="46.35083" lon="-1.24758">
        <ele>4</ele>
        <time>2023-10-30T15:00:51Z</time>
      </trkpt>
      <trkpt lat="46.34418" lon="-1.24791">
        <ele>2</ele>
        <time>2023-10-30T15:15:39Z</time>
      </trkpt>
      <trkpt lat="46.34831" lon="-1.23109">
        <ele>1</ele>
        <time>2023-10-30T15:43:03Z</time>
      </trkpt>
      <trkpt lat="46.35494" lon="-1.23286">
        <ele>2.2</ele>
        <time>2023-10-30T15:58:03Z</time>
      </trkpt>
      <trkpt lat="46.35778" lon="-1.22231">
        <ele>1</ele>
        <time>2023-10-30T16:15:26Z</time>
      </trkpt>
      <trkpt lat="46.35869" lon="-1.21993">
        <ele>1</ele>
        <time>2023-10-30T16:19:37Z</time>
      </trkpt>
      <trkpt lat="46.35893" lon="-1.21914">
        <ele>2.8</ele>
        <time>2023-10-30T16:20:56Z</time>
      </trkpt>
      <trkpt lat="46.35926" lon="-1.21864">
        <ele>1</ele>
        <time>2023-10-30T16:22:00Z</time>
      </trkpt>
      <trkpt lat="46.35834" lon="-1.21714">
        <ele>3</ele>
        <time>2023-10-30T16:25:05Z</time>
      </trkpt>
      <trkpt lat="46.35786" lon="-1.21673">
        <ele>2</ele>
        <time>2023-10-30T16:26:19Z</time>
      </trkpt>
      <trkpt lat="46.35804" lon="-1.21635">
        <ele>2</ele>
        <time>2023-10-30T16:27:01Z</time>
      </trkpt>
      <trkpt lat="46.35961" lon="-1.21699">
        <ele>2</ele>
        <time>2023-10-30T16:30:39Z</time>
      </trkpt>
      <trkpt lat="46.3598" lon="-1.21669">
        <ele>3</ele>
        <time>2023-10-30T16:31:17Z</time>
      </trkpt>
      <trkpt lat="46.35915" lon="-1.2063">
        <ele>2</ele>
        <time>2023-10-30T16:47:17Z</time>
      </trkpt>
      <trkpt lat="46.37057" lon="-1.20847">
        <ele>1</ele>
        <time>2023-10-30T17:12:54Z</time>
      </trkpt>
      <trkpt lat="46.37296" lon="-1.20204">
        <ele>2</ele>
        <time>2023-10-30T17:24:07Z</time>
      </trkpt>
      <trkpt lat="46.36014" lon="-1.19622">
        <ele>2</ele>
        <time>2023-10-30T17:54:00Z</time>
      </trkpt>
      <trkpt lat="46.36162" lon="-1.1852">
        <ele>1</ele>
        <time>2023-10-30T18:11:14Z</time>
      </trkpt>
      <trkpt lat="46.36071" lon="-1.18071">
        <ele>1</ele>
        <time>2023-10-30T18:18:24Z</time>
      </trkpt>
      <trkpt lat="46.36097" lon="-1.18066">
        <ele>1</ele>
        <time>2023-10-30T18:18:59Z</time>
      </trkpt>
      <trkpt lat="46.36092" lon="-1.17787">
        <ele>1</ele>
        <time>2023-10-30T18:23:17Z</time>
      </trkpt>
      <trkpt lat="46.36111" lon="-1.17247">
        <ele>2</ele>
        <time>2023-10-30T18:31:34Z</time>
      </trkpt>
      <trkpt lat="46.35831" lon="-1.16867">
        <ele>2.8</ele>
        <time>2023-10-30T18:40:06Z</time>
      </trkpt>
      <trkpt lat="46.3581" lon="-1.16815">
        <ele>2</ele>
        <time>2023-10-30T18:41:02Z</time>
      </trkpt>
      <trkpt lat="46.35831" lon="-1.16661">
        <ele>2.7</ele>
        <time>2023-10-30T18:43:26Z</time>
      </trkpt>
      <trkpt lat="46.35575" lon="-1.16618">
        <ele>1</ele>
        <time>2023-10-30T18:49:10Z</time>
      </trkpt>
      <trkpt lat="46.35578" lon="-1.16581">
        <ele>2</ele>
        <time>2023-10-30T18:49:45Z</time>
      </trkpt>
      <trkpt lat="46.35508" lon="-1.1656">
        <ele>1</ele>
        <time>2023-10-30T18:51:20Z</time>
      </trkpt>
      <trkpt lat="46.35472" lon="-1.16446">
        <ele>2</ele>
        <time>2023-10-30T18:53:16Z</time>
      </trkpt>
      <trkpt lat="46.35455" lon="-1.16262">
        <ele>1</ele>
        <time>2023-10-30T18:56:07Z</time>
      </trkpt>
      <trkpt lat="46.34942" lon="-1.15191">
        <ele>1</ele>
        <time>2023-10-30T19:16:07Z</time>
      </trkpt>
      <trkpt lat="46.34793" lon="-1.15071">
        <ele>1</ele>
        <time>2023-10-30T19:19:55Z</time>
      </trkpt>
      <trkpt lat="46.34733" lon="-1.15064">
        <ele>1</ele>
        <time>2023-10-30T19:21:15Z</time>
      </trkpt>
      <trkpt lat="46.34624" lon="-1.15092">
        <ele>2.7</ele>
        <time>2023-10-30T19:23:43Z</time>
      </trkpt>
      <trkpt lat="46.34596" lon="-1.15075">
        <ele>-1</ele>
        <time>2023-10-30T19:24:23Z</time>
      </trkpt>
      <trkpt lat="46.34067" lon="-1.14004">
        <ele>2.6</ele>
        <time>2023-10-30T19:44:37Z</time>
      </trkpt>
      <trkpt lat="46.32968" lon="-1.12296">
        <ele>2</ele>
        <time>2023-10-30T20:20:28Z</time>
      </trkpt>
      <trkpt lat="46.32904" lon="-1.11732">
        <ele>2.8</ele>
        <time>2023-10-30T20:29:14Z</time>
      </trkpt>
      <trkpt lat="46.32928" lon="-1.11507">
        <ele>2.7</ele>
        <time>2023-10-30T20:32:44Z</time>
      </trkpt>
      <trkpt lat="46.32922" lon="-1.11457">
        <ele>1</ele>
        <time>2023-10-30T20:33:31Z</time>
      </trkpt>
      <trkpt lat="46.32945" lon="-1.11127">
        <ele>2.6</ele>
        <time>2023-10-30T20:38:37Z</time>
      </trkpt>
      <trkpt lat="46.33216" lon="-1.10618">
        <ele>1</ele>
        <time>2023-10-30T20:48:29Z</time>
      </trkpt>
      <trkpt lat="46.3316" lon="-1.10213">
        <ele>-1</ele>
        <time>2023-10-30T20:54:49Z</time>
      </trkpt>
      <trkpt lat="46.32945" lon="-1.10108">
        <ele>2.9</ele>
        <time>2023-10-30T20:59:52Z</time>
      </trkpt>
      <trkpt lat="46.32705" lon="-1.0985">
        <ele>3</ele>
        <time>2023-10-30T21:06:31Z</time>
      </trkpt>
      <trkpt lat="46.32282" lon="-1.09307">
        <ele>2.9</ele>
        <time>2023-10-30T21:19:05Z</time>
      </trkpt>
      <trkpt lat="46.31868" lon="-1.08862">
        <ele>1</ele>
        <time>2023-10-30T21:30:33Z</time>
      </trkpt>
      <trkpt lat="46.3183" lon="-1.08622">
        <ele>3</ele>
        <time>2023-10-30T21:34:20Z</time>
      </trkpt>
      <trkpt lat="46.31747" lon="-1.08424">
        <ele>2</ele>
        <time>2023-10-30T21:37:54Z</time>
      </trkpt>
      <trkpt lat="46.31775" lon="-1.08275">
        <ele>1</ele>
        <time>2023-10-30T21:40:16Z</time>
      </trkpt>
    </trkseg>
  </trk>
</gpx>